Sanko Maru — JG5227 — position and weather

sailwx.info

Track history (hours):
 
Tides and Currents Weather Stations Pressure Air Temp Water Temp Dewpoint Dewpoint Depression Visibility Wind Speed Wind Dir Waves Ship Positions

Sanko Maru

Last reported at 2017-Dec-11 16:55 UTC. Time now 2017-Dec-13 13:01 UTC.
Position N 34°54' E 136°41'.

Length 104 m; draft 4.9 m.

Type: Ship (hazmat cat A). MMSI: 431100146.

Date/timePositionNaut miles runAvg speedWind from/ knotsBaromVisibWave heightAir tempDewpointWater temp
2017-Dec-11 16:55N 34°54' E 136°41'0 0.1
2017-Dec-11 16:28N 34°54' E 136°41'0 0.0
2017-Dec-11 15:55N 34°54' E 136°41'0 0.0
2017-Dec-11 15:28N 34°54' E 136°41'0 0.0
2017-Dec-11 14:55N 34°54' E 136°41'0 0.0
2017-Dec-11 14:28N 34°54' E 136°41'0 0.0
2017-Dec-11 13:58N 34°54' E 136°41'0 0.0
2017-Dec-11 13:25N 34°54' E 136°41'0 0.0
2017-Dec-11 12:55N 34°54' E 136°41'0 0.0
2017-Dec-11 12:25N 34°54' E 136°41'0 0.0
2017-Dec-11 11:58N 34°54' E 136°41'0 0.0
2017-Dec-11 11:28N 34°54' E 136°41'0 0.0
2017-Dec-11 10:55N 34°54' E 136°41'0 0.0
2017-Dec-11 10:25N 34°54' E 136°41'0 0.0
2017-Dec-11 09:58N 34°54' E 136°41'0 0.0
2017-Dec-11 09:28N 34°54' E 136°41'0 0.0
2017-Dec-11 08:55N 34°54' E 136°41'0 0.0
2017-Dec-11 08:28N 34°54' E 136°41'3 6.5
2017-Dec-11 08:01N 34°57' E 136°41'2 3.1
2017-Dec-11 07:26N 34°57' E 136°38'0 0.0
2017-Dec-11 06:59N 34°57' E 136°38'0 0.0
2017-Dec-11 06:29N 34°57' E 136°38'0 0.0
2017-Dec-11 05:59N 34°57' E 136°38'0 0.0
2017-Dec-11 05:29N 34°57' E 136°38'0 0.0
2017-Dec-11 04:59N 34°57' E 136°38'0 0.0
2017-Dec-11 04:29N 34°57' E 136°38'0 0.0
2017-Dec-11 03:59N 34°57' E 136°38'0 0.0
2017-Dec-11 03:26N 34°57' E 136°38'0 0.0
2017-Dec-11 02:59N 34°57' E 136°38'0 0.0
2017-Dec-11 02:29N 34°57' E 136°38'0 0.0
2017-Dec-11 01:59N 34°57' E 136°38'0 0.0
2017-Dec-11 01:29N 34°57' E 136°38'0 0.0
2017-Dec-11 00:59N 34°57' E 136°38'0 0.0
2017-Dec-11 00:23N 34°57' E 136°38'0 0.0
2017-Dec-10 23:59N 34°57' E 136°38'0 0.0
2017-Dec-10 23:29N 34°57' E 136°38'0 0.0
2017-Dec-10 22:59N 34°57' E 136°38'0 0.0
2017-Dec-10 22:29N 34°57' E 136°38'3 5.4
2017-Dec-10 22:01N 34°56' E 136°41'0 0.4
2017-Dec-10 21:29N 34°56' E 136°41'0 0.0
2017-Dec-10 20:59N 34°56' E 136°41'0 0.0
2017-Dec-10 20:29N 34°56' E 136°41'0 0.0
2017-Dec-10 19:59N 34°56' E 136°41'0 0.0
2017-Dec-10 19:29N 34°56' E 136°41'0 0.0
2017-Dec-10 18:59N 34°56' E 136°41'0 0.0
2017-Dec-10 18:29N 34°56' E 136°41'3 7.0
2017-Dec-10 18:01N 34°53' E 136°43'713.0
2017-Dec-10 17:30N 34°48' E 136°47'612.7
2017-Dec-10 17:00N 34°42' E 136°51'1911.4
2017-Dec-10 15:19N 34°34' E 137°12'5112.7
2017-Dec-10 11:17N 34°32' E 138°14'1212.5
2017-Dec-10 10:20N 34°33' E 138°28'412.6
2017-Dec-10 10:00N 34°33' E 138°34'612.6
2017-Dec-10 09:30N 34°34' E 138°41'712.5
2017-Dec-10 08:58N 34°34' E 138°49'511.8
2017-Dec-10 08:30N 34°36' E 138°56'611.7
2017-Dec-10 07:58N 34°40' E 139°01'913.4
2017-Dec-10 07:19N 34°47' E 139°07'1012.7
2017-Dec-10 06:34N 34°55' E 139°14'112.8
2017-Dec-10 06:29N 34°55' E 139°15'612.5
2017-Dec-10 06:00N 34°58' E 139°21'611.0
2017-Dec-10 05:30N 35°01' E 139°28'611.4
2017-Dec-10 05:00N 35°03' E 139°34'611.4
2017-Dec-10 04:31N 35°06' E 139°40'611.7
2017-Dec-10 04:00N 35°10' E 139°45'611.9
2017-Dec-10 03:30N 35°16' E 139°46'613.0
2017-Dec-10 03:00N 35°22' E 139°42'612.8
2017-Dec-10 02:30N 35°27' E 139°47'5 9.2
2017-Dec-10 02:01N 35°32' E 139°48'0 0.0
2017-Dec-10 01:28N 35°32' E 139°48'0 0.0
2017-Dec-10 00:55N 35°32' E 139°48'0 0.0
2017-Dec-10 00:28N 35°32' E 139°48'0 0.0
2017-Dec-09 23:55N 35°32' E 139°48'0 0.0
2017-Dec-09 23:28N 35°32' E 139°48'0 0.0
2017-Dec-09 22:58N 35°32' E 139°48'0 0.1
2017-Dec-09 22:30N 35°32' E 139°48'2 4.2
2017-Dec-09 22:00N 35°31' E 139°50'0 0.1
2017-Dec-09 21:30N 35°31' E 139°50'0 0.0
2017-Dec-09 21:00N 35°31' E 139°50'0 0.0
2017-Dec-09 20:30N 35°31' E 139°50'0 0.1
2017-Dec-09 20:00N 35°31' E 139°50'0 0.0
2017-Dec-09 19:27N 35°31' E 139°50'0 0.0
2017-Dec-09 19:00N 35°31' E 139°50'0 0.0
2017-Dec-09 18:30N 35°31' E 139°50'0 0.0
2017-Dec-09 18:00N 35°31' E 139°50'0 0.1
2017-Dec-09 17:30N 35°31' E 139°50'0 0.1
2017-Dec-09 17:00N 35°31' E 139°50'0 0.0
2017-Dec-09 16:30N 35°31' E 139°50'0 0.0
2017-Dec-09 16:00N 35°31' E 139°50'0 0.0
2017-Dec-09 15:30N 35°31' E 139°50'0 0.0
2017-Dec-09 15:00N 35°31' E 139°50'0 0.0
2017-Dec-09 14:30N 35°31' E 139°50'0 0.1
2017-Dec-09 13:36N 35°31' E 139°50'0 0.0
2017-Dec-09 13:09N 35°31' E 139°50'0 0.0
2017-Dec-09 12:51N 35°31' E 139°50'1 3.4
2017-Dec-09 12:30N 35°31' E 139°52'612.1
2017-Dec-09 12:00N 35°30' E 139°59'2 2.7
2017-Dec-09 11:23N 35°29' E 140°01'0 0.0
2017-Dec-09 10:56N 35°29' E 140°01'0 0.0
2017-Dec-09 10:26N 35°29' E 140°01'0 0.0
2017-Dec-09 09:47N 35°29' E 140°01'0 0.0
2017-Dec-09 08:32N 35°29' E 140°01'0 0.0
2017-Dec-09 08:20N 35°29' E 140°01'0 0.0
2017-Dec-09 06:44N 35°29' E 140°01'0 0.0
2017-Dec-09 06:21N 35°29' E 140°01'1 4.3
2017-Dec-09 06:00N 35°30' E 139°60'510.8
2017-Dec-09 05:30N 35°35' E 140°03'2 3.3
2017-Dec-09 04:59N 35°36' E 140°05'0 0.0
2017-Dec-09 04:29N 35°36' E 140°05'0 0.0
2017-Dec-09 03:59N 35°36' E 140°05'0 0.0
2017-Dec-09 03:29N 35°36' E 140°05'0 0.0
2017-Dec-09 02:59N 35°36' E 140°05'0 0.0
2017-Dec-09 02:29N 35°36' E 140°05'0 0.0
2017-Dec-09 01:59N 35°36' E 140°05'0 0.0
2017-Dec-09 01:29N 35°36' E 140°05'0 0.0
2017-Dec-09 00:59N 35°36' E 140°05'0 0.0
2017-Dec-09 00:29N 35°36' E 140°05'0 0.0
2017-Dec-08 23:59N 35°36' E 140°05'0 0.0
2017-Dec-08 23:29N 35°36' E 140°05'1 2.6
2017-Dec-08 22:59N 35°35' E 140°03'0 0.1
2017-Dec-08 22:29N 35°35' E 140°03'0 0.0
2017-Dec-08 21:59N 35°35' E 140°03'0 0.0
2017-Dec-08 21:29N 35°35' E 140°03'0 0.0
2017-Dec-08 20:59N 35°35' E 140°03'0 0.0
2017-Dec-08 20:29N 35°35' E 140°03'0 0.0
2017-Dec-08 19:59N 35°35' E 140°03'0 0.0
2017-Dec-08 19:29N 35°35' E 140°03'0 0.0
2017-Dec-08 18:59N 35°35' E 140°03'0 0.0
2017-Dec-08 18:29N 35°35' E 140°03'0 0.0
2017-Dec-08 17:59N 35°35' E 140°03'0 0.0
2017-Dec-08 17:29N 35°35' E 140°03'0 0.1
2017-Dec-08 16:53N 35°35' E 140°03'0 0.0
2017-Dec-08 16:29N 35°35' E 140°03'0 0.1
2017-Dec-08 15:59N 35°35' E 140°03'0 0.0
2017-Dec-08 15:29N 35°35' E 140°03'0 0.1
2017-Dec-08 14:59N 35°35' E 140°03'0 0.0
2017-Dec-08 14:29N 35°35' E 140°03'0 0.0
2017-Dec-08 13:59N 35°35' E 140°03'0 0.1
2017-Dec-08 13:29N 35°35' E 140°03'0 0.0
2017-Dec-08 12:59N 35°35' E 140°03'0 0.0
2017-Dec-08 12:29N 35°35' E 140°03'0 0.1
2017-Dec-08 11:59N 35°35' E 140°03'0 0.0
2017-Dec-08 11:29N 35°35' E 140°03'0 0.1
2017-Dec-08 10:59N 35°35' E 140°03'0 0.0
2017-Dec-08 10:29N 35°35' E 140°03'0 0.1
2017-Dec-08 09:59N 35°36' E 140°03'0 0.0
2017-Dec-08 09:29N 35°36' E 140°03'0 0.0
2017-Dec-08 08:59N 35°36' E 140°03'0 0.0
2017-Dec-08 08:29N 35°35' E 140°03'0 0.1
2017-Dec-08 07:59N 35°35' E 140°03'0 0.0
2017-Dec-08 07:29N 35°35' E 140°03'0 0.1
2017-Dec-08 06:59N 35°35' E 140°03'0 0.1
2017-Dec-08 06:29N 35°36' E 140°03'0 0.1
2017-Dec-08 05:59N 35°36' E 140°03'0 0.2
2017-Dec-08 05:30N 35°35' E 140°03'3 6.9
2017-Dec-08 05:00N 35°33' E 140°00'4 8.7
2017-Dec-08 04:30N 35°29' E 140°01'0 0.0
2017-Dec-07 23:02N 35°29' E 140°01'0 0.3
2017-Dec-07 23:00N 35°29' E 140°01'1 2.7
2017-Dec-07 22:28N 35°30' E 139°60'0 0.0
2017-Dec-07 21:55N 35°30' E 139°60'0 0.0
2017-Dec-07 21:25N 35°30' E 139°60'0 0.0
2017-Dec-07 20:58N 35°30' E 139°60'0 0.1
2017-Dec-07 20:28N 35°30' E 139°60'0 0.1
2017-Dec-07 19:58N 35°30' E 139°60'0 0.0
2017-Dec-07 19:28N 35°30' E 139°60'0 0.0
2017-Dec-07 18:55N 35°30' E 139°60'0 0.0
2017-Dec-07 18:25N 35°30' E 139°60'0 0.0
2017-Dec-07 17:55N 35°30' E 139°60'0 0.1
2017-Dec-07 17:28N 35°30' E 139°60'0 0.0
2017-Dec-07 16:58N 35°30' E 139°60'0 0.0
2017-Dec-07 16:25N 35°30' E 139°60'0 0.1
2017-Dec-07 15:58N 35°30' E 139°60'0 0.1
2017-Dec-07 15:10N 35°30' E 139°60'0 0.0
2017-Dec-07 14:52N 35°30' E 139°60'0 0.0
2017-Dec-07 14:28N 35°30' E 139°60'0 0.0
2017-Dec-07 13:58N 35°30' E 139°60'0 0.0
2017-Dec-07 13:28N 35°30' E 139°60'0 0.0
2017-Dec-07 12:55N 35°30' E 139°60'0 0.0
2017-Dec-07 12:28N 35°30' E 139°60'0 0.0
2017-Dec-07 11:55N 35°30' E 139°60'0 0.0
2017-Dec-07 11:28N 35°30' E 139°60'0 0.0
2017-Dec-07 10:58N 35°30' E 139°60'0 0.1
2017-Dec-07 10:28N 35°30' E 139°60'0 0.0
2017-Dec-07 09:58N 35°30' E 139°60'0 0.0
2017-Dec-07 09:28N 35°30' E 139°60'0 0.0
2017-Dec-07 08:58N 35°30' E 139°60'0 0.0
2017-Dec-07 08:28N 35°30' E 139°60'0 0.0
2017-Dec-07 07:58N 35°30' E 139°60'0 0.1
2017-Dec-07 07:28N 35°30' E 139°60'0 0.0
2017-Dec-07 06:55N 35°30' E 139°60'0 0.0
2017-Dec-07 06:25N 35°30' E 139°60'0 0.1
2017-Dec-07 05:58N 35°30' E 139°60'0 0.7
2017-Dec-07 05:30N 35°30' E 139°59'612.4
2017-Dec-07 05:00N 35°31' E 139°51'3 4.3
2017-Dec-07 04:15N 35°32' E 139°48'0 0.0
2017-Dec-07 03:39N 35°32' E 139°48'0 0.0
2017-Dec-07 02:48N 35°32' E 139°48'0 0.0
2017-Dec-07 02:24N 35°32' E 139°48'0 0.0
2017-Dec-07 01:39N 35°32' E 139°48'0 0.0
2017-Dec-07 01:18N 35°32' E 139°48'0 0.0
2017-Dec-07 00:57N 35°32' E 139°48'0 0.0
2017-Dec-07 00:27N 35°32' E 139°48'1 1.8
2017-Dec-07 00:00N 35°31' E 139°48'5 9.7
2017-Dec-06 23:30N 35°29' E 139°53'2 3.9
2017-Dec-06 23:00N 35°29' E 139°56'0 0.0
2017-Dec-06 22:30N 35°28' E 139°56'0 0.0
2017-Dec-06 22:00N 35°28' E 139°56'0 0.0
2017-Dec-06 21:30N 35°29' E 139°56'0 0.0
2017-Dec-06 21:00N 35°28' E 139°56'  
2017-Dec-04 10:23N 35°36' E 140°03'0 0.0
2017-Dec-04 09:59N 35°36' E 140°03'0 0.0
2017-Dec-04 09:29N 35°36' E 140°03'0 0.0
2017-Dec-04 08:59N 35°36' E 140°03'0 0.0
2017-Dec-04 08:29N 35°36' E 140°03'0 0.0
2017-Dec-04 07:59N 35°36' E 140°03'0 0.0
2017-Dec-04 07:29N 35°36' E 140°03'0 0.0
2017-Dec-04 06:59N 35°36' E 140°03'0 0.0
2017-Dec-04 06:29N 35°36' E 140°03'0 0.0
2017-Dec-04 05:59N 35°36' E 140°03'0 0.0
2017-Dec-04 05:29N 35°36' E 140°03'3 6.6
2017-Dec-04 05:00N 35°33' E 140°01'4 8.6
2017-Dec-04 04:30N 35°29' E 140°01'0 0.1
2017-Dec-04 03:22N 35°29' E 140°01'0 0.0
2017-Dec-03 23:07N 35°29' E 140°01'0 1.0
2017-Dec-03 23:00N 35°29' E 140°01'4 8.7
2017-Dec-03 22:30N 35°30' E 139°55'612.9
2017-Dec-03 22:00N 35°30' E 139°47'2 3.2
2017-Dec-03 21:29N 35°30' E 139°45'0 0.0
2017-Dec-03 20:56N 35°30' E 139°45'0 0.0
2017-Dec-03 20:29N 35°30' E 139°45'0 0.0
2017-Dec-03 19:59N 35°30' E 139°45'0 0.0
2017-Dec-03 19:29N 35°30' E 139°45'0 0.0
2017-Dec-03 18:56N 35°30' E 139°45'0 0.0
2017-Dec-03 18:26N 35°30' E 139°45'0 0.0
2017-Dec-03 17:59N 35°30' E 139°45'0 0.0
2017-Dec-03 17:29N 35°30' E 139°45'0 0.0
2017-Dec-03 16:59N 35°30' E 139°45'0 0.0
2017-Dec-03 16:29N 35°30' E 139°45'0 0.0
2017-Dec-03 15:59N 35°30' E 139°45'0 0.0
2017-Dec-03 15:29N 35°30' E 139°45'0 0.0
2017-Dec-03 14:59N 35°30' E 139°45'0 0.0
2017-Dec-03 14:29N 35°30' E 139°45'0 0.0
2017-Dec-03 13:59N 35°30' E 139°45'0 0.0
2017-Dec-03 13:29N 35°30' E 139°45'0 0.0
2017-Dec-03 12:59N 35°30' E 139°45'0 0.0
2017-Dec-03 12:29N 35°30' E 139°45'0 0.0
2017-Dec-03 11:59N 35°30' E 139°45'0 0.0
2017-Dec-03 11:26N 35°30' E 139°45'0 0.0
2017-Dec-03 10:56N 35°30' E 139°45'0 0.0
2017-Dec-03 10:29N 35°30' E 139°45'0 0.0
2017-Dec-03 09:59N 35°30' E 139°45'0 0.0
2017-Dec-03 09:29N 35°30' E 139°45'0 0.0
2017-Dec-03 08:59N 35°30' E 139°45'0 0.0
2017-Dec-03 08:29N 35°30' E 139°45'0 0.0
2017-Dec-03 07:59N 35°30' E 139°45'0 0.0
2017-Dec-03 07:29N 35°30' E 139°45'0 0.0
2017-Dec-03 06:59N 35°30' E 139°45'0 0.0
2017-Dec-03 06:26N 35°30' E 139°45'0 0.6
2017-Dec-03 06:01N 35°30' E 139°45'3 6.3
2017-Dec-03 05:30N 35°27' E 139°44'2 3.4
2017-Dec-03 05:00N 35°28' E 139°46'4 8.9
2017-Dec-03 04:30N 35°32' E 139°48'0 0.0
2017-Dec-03 03:54N 35°32' E 139°48'0 0.0
2017-Dec-03 03:24N 35°32' E 139°48'0 0.0
2017-Dec-03 03:00N 35°32' E 139°48'0 0.0
2017-Dec-03 01:30N 35°32' E 139°48'0 0.0
2017-Dec-03 01:00N 35°32' E 139°48'0 0.0
2017-Dec-03 00:27N 35°32' E 139°48'1 2.1
2017-Dec-03 00:00N 35°31' E 139°48'2 3.4
2017-Dec-02 23:28N 35°31' E 139°50'0 0.0
2017-Dec-02 22:52N 35°31' E 139°50'0 0.0
2017-Dec-02 22:28N 35°31' E 139°50'0 0.0
2017-Dec-02 21:58N 35°31' E 139°50'0 0.0
2017-Dec-02 21:28N 35°31' E 139°50'0 0.1
2017-Dec-02 20:58N 35°31' E 139°50'0 0.1
2017-Dec-02 20:28N 35°31' E 139°50'0 0.0
2017-Dec-02 19:58N 35°31' E 139°50'0 0.0
2017-Dec-02 19:28N 35°31' E 139°50'0 0.0
2017-Dec-02 18:58N 35°31' E 139°50'0 0.1
2017-Dec-02 18:28N 35°31' E 139°50'0 0.0
2017-Dec-02 17:58N 35°31' E 139°50'0 0.0
2017-Dec-02 17:28N 35°31' E 139°50'0 0.0
2017-Dec-02 16:58N 35°31' E 139°50'0 0.1
2017-Dec-02 16:28N 35°31' E 139°50'0 0.1
2017-Dec-02 15:58N 35°31' E 139°50'0 0.1
2017-Dec-02 15:28N 35°31' E 139°50'0 0.0
2017-Dec-02 14:58N 35°31' E 139°50'0 0.1
2017-Dec-02 14:25N 35°31' E 139°50'0 0.0
2017-Dec-02 13:58N 35°31' E 139°50'0 0.0
2017-Dec-02 13:28N 35°31' E 139°50'0 0.0
2017-Dec-02 12:58N 35°31' E 139°50'0 0.0
2017-Dec-02 12:28N 35°31' E 139°50'0 0.1
2017-Dec-02 11:58N 35°31' E 139°50'0 0.0
2017-Dec-02 11:28N 35°31' E 139°50'0 0.0
2017-Dec-02 10:55N 35°31' E 139°50'0 0.0
2017-Dec-02 10:28N 35°31' E 139°50'0 0.0
2017-Dec-02 09:58N 35°31' E 139°50'0 0.0
2017-Dec-02 09:28N 35°31' E 139°50'0 0.0
2017-Dec-02 08:58N 35°31' E 139°50'0 0.0
2017-Dec-02 08:28N 35°31' E 139°50'0 0.0
2017-Dec-02 07:58N 35°31' E 139°50'0 0.0
2017-Dec-02 07:28N 35°31' E 139°50'0 0.0
2017-Dec-02 06:58N 35°31' E 139°50'0 0.0
2017-Dec-02 06:28N 35°31' E 139°50'0 0.1
2017-Dec-02 05:55N 35°31' E 139°50'0 0.1
2017-Dec-02 05:30N 35°31' E 139°50'5 9.5
2017-Dec-02 05:00N 35°30' E 139°56'4 8.0
2017-Dec-02 04:30N 35°29' E 140°01'0 0.0
2017-Dec-01 23:34N 35°29' E 140°01'0 0.1
2017-Dec-01 23:30N 35°29' E 140°01'2 3.9
2017-Dec-01 22:58N 35°30' E 139°58'0 0.0
2017-Dec-01 22:31N 35°30' E 139°58'0 0.0
2017-Dec-01 22:01N 35°30' E 139°58'0 0.0
2017-Dec-01 21:30N 35°30' E 139°58'0 0.0
2017-Dec-01 21:01N 35°30' E 139°58'0 0.0
2017-Dec-01 20:30N 35°30' E 139°58'0 0.0
2017-Dec-01 20:01N 35°30' E 139°58'0 0.0
2017-Dec-01 19:30N 35°30' E 139°58'0 0.0
2017-Dec-01 19:00N 35°30' E 139°58'0 0.0
2017-Dec-01 18:30N 35°30' E 139°58'0 0.0
2017-Dec-01 18:00N 35°30' E 139°58'0 0.0
2017-Dec-01 17:30N 35°30' E 139°58'0 0.0
2017-Dec-01 17:00N 35°30' E 139°58'  
Track history (hours):
 
Tides and Currents Weather Stations Pressure Air Temp Water Temp Dewpoint Dewpoint Depression Visibility Wind Speed Wind Dir Waves Ship Positions

Sanko Maru

Last reported at 2017-Dec-11 16:55 UTC. Time now 2017-Dec-13 13:01 UTC.
Position N 34°54' E 136°41'.

Length 104 m; draft 4.9 m.

Type: Ship (hazmat cat A). MMSI: 431100146.

Date/timePositionNaut miles runAvg speedWind from/ knotsBaromVisibWave heightAir tempDewpointWater temp
2017-Dec-11 16:55N 34°54' E 136°41'0 0.1
2017-Dec-11 16:28N 34°54' E 136°41'0 0.0
2017-Dec-11 15:55N 34°54' E 136°41'0 0.0
2017-Dec-11 15:28N 34°54' E 136°41'0 0.0
2017-Dec-11 14:55N 34°54' E 136°41'0 0.0
2017-Dec-11 14:28N 34°54' E 136°41'0 0.0
2017-Dec-11 13:58N 34°54' E 136°41'0 0.0
2017-Dec-11 13:25N 34°54' E 136°41'0 0.0
2017-Dec-11 12:55N 34°54' E 136°41'0 0.0
2017-Dec-11 12:25N 34°54' E 136°41'0 0.0
2017-Dec-11 11:58N 34°54' E 136°41'0 0.0
2017-Dec-11 11:28N 34°54' E 136°41'0 0.0
2017-Dec-11 10:55N 34°54' E 136°41'0 0.0
2017-Dec-11 10:25N 34°54' E 136°41'0 0.0
2017-Dec-11 09:58N 34°54' E 136°41'0 0.0
2017-Dec-11 09:28N 34°54' E 136°41'0 0.0
2017-Dec-11 08:55N 34°54' E 136°41'0 0.0
2017-Dec-11 08:28N 34°54' E 136°41'3 6.5
2017-Dec-11 08:01N 34°57' E 136°41'2 3.1
2017-Dec-11 07:26N 34°57' E 136°38'0 0.0
2017-Dec-11 06:59N 34°57' E 136°38'0 0.0
2017-Dec-11 06:29N 34°57' E 136°38'0 0.0
2017-Dec-11 05:59N 34°57' E 136°38'0 0.0
2017-Dec-11 05:29N 34°57' E 136°38'0 0.0
2017-Dec-11 04:59N 34°57' E 136°38'0 0.0
2017-Dec-11 04:29N 34°57' E 136°38'0 0.0
2017-Dec-11 03:59N 34°57' E 136°38'0 0.0
2017-Dec-11 03:26N 34°57' E 136°38'0 0.0
2017-Dec-11 02:59N 34°57' E 136°38'0 0.0
2017-Dec-11 02:29N 34°57' E 136°38'0 0.0
2017-Dec-11 01:59N 34°57' E 136°38'0 0.0
2017-Dec-11 01:29N 34°57' E 136°38'0 0.0
2017-Dec-11 00:59N 34°57' E 136°38'0 0.0
2017-Dec-11 00:23N 34°57' E 136°38'0 0.0
2017-Dec-10 23:59N 34°57' E 136°38'0 0.0
2017-Dec-10 23:29N 34°57' E 136°38'0 0.0
2017-Dec-10 22:59N 34°57' E 136°38'0 0.0
2017-Dec-10 22:29N 34°57' E 136°38'3 5.4
2017-Dec-10 22:01N 34°56' E 136°41'0 0.4
2017-Dec-10 21:29N 34°56' E 136°41'0 0.0
2017-Dec-10 20:59N 34°56' E 136°41'0 0.0
2017-Dec-10 20:29N 34°56' E 136°41'0 0.0
2017-Dec-10 19:59N 34°56' E 136°41'0 0.0
2017-Dec-10 19:29N 34°56' E 136°41'0 0.0
2017-Dec-10 18:59N 34°56' E 136°41'0 0.0
2017-Dec-10 18:29N 34°56' E 136°41'3 7.0
2017-Dec-10 18:01N 34°53' E 136°43'713.0
2017-Dec-10 17:30N 34°48' E 136°47'612.7
2017-Dec-10 17:00N 34°42' E 136°51'1911.4
2017-Dec-10 15:19N 34°34' E 137°12'5112.7
2017-Dec-10 11:17N 34°32' E 138°14'1212.5
2017-Dec-10 10:20N 34°33' E 138°28'412.6
2017-Dec-10 10:00N 34°33' E 138°34'612.6
2017-Dec-10 09:30N 34°34' E 138°41'712.5
2017-Dec-10 08:58N 34°34' E 138°49'511.8
2017-Dec-10 08:30N 34°36' E 138°56'611.7
2017-Dec-10 07:58N 34°40' E 139°01'913.4
2017-Dec-10 07:19N 34°47' E 139°07'1012.7
2017-Dec-10 06:34N 34°55' E 139°14'112.8
2017-Dec-10 06:29N 34°55' E 139°15'612.5
2017-Dec-10 06:00N 34°58' E 139°21'611.0
2017-Dec-10 05:30N 35°01' E 139°28'611.4
2017-Dec-10 05:00N 35°03' E 139°34'611.4
2017-Dec-10 04:31N 35°06' E 139°40'611.7
2017-Dec-10 04:00N 35°10' E 139°45'611.9
2017-Dec-10 03:30N 35°16' E 139°46'613.0
2017-Dec-10 03:00N 35°22' E 139°42'612.8
2017-Dec-10 02:30N 35°27' E 139°47'5 9.2
2017-Dec-10 02:01N 35°32' E 139°48'0 0.0
2017-Dec-10 01:28N 35°32' E 139°48'0 0.0
2017-Dec-10 00:55N 35°32' E 139°48'0 0.0
2017-Dec-10 00:28N 35°32' E 139°48'0 0.0
2017-Dec-09 23:55N 35°32' E 139°48'0 0.0
2017-Dec-09 23:28N 35°32' E 139°48'0 0.0
2017-Dec-09 22:58N 35°32' E 139°48'0 0.1
2017-Dec-09 22:30N 35°32' E 139°48'2 4.2
2017-Dec-09 22:00N 35°31' E 139°50'0 0.1
2017-Dec-09 21:30N 35°31' E 139°50'0 0.0
2017-Dec-09 21:00N 35°31' E 139°50'0 0.0
2017-Dec-09 20:30N 35°31' E 139°50'0 0.1
2017-Dec-09 20:00N 35°31' E 139°50'0 0.0
2017-Dec-09 19:27N 35°31' E 139°50'0 0.0
2017-Dec-09 19:00N 35°31' E 139°50'0 0.0
2017-Dec-09 18:30N 35°31' E 139°50'0 0.0
2017-Dec-09 18:00N 35°31' E 139°50'0 0.1
2017-Dec-09 17:30N 35°31' E 139°50'0 0.1
2017-Dec-09 17:00N 35°31' E 139°50'0 0.0
2017-Dec-09 16:30N 35°31' E 139°50'0 0.0
2017-Dec-09 16:00N 35°31' E 139°50'0 0.0
2017-Dec-09 15:30N 35°31' E 139°50'0 0.0
2017-Dec-09 15:00N 35°31' E 139°50'0 0.0
2017-Dec-09 14:30N 35°31' E 139°50'0 0.1
2017-Dec-09 13:36N 35°31' E 139°50'0 0.0
2017-Dec-09 13:09N 35°31' E 139°50'0 0.0
2017-Dec-09 12:51N 35°31' E 139°50'1 3.4
2017-Dec-09 12:30N 35°31' E 139°52'612.1
2017-Dec-09 12:00N 35°30' E 139°59'2 2.7
2017-Dec-09 11:23N 35°29' E 140°01'0 0.0
2017-Dec-09 10:56N 35°29' E 140°01'0 0.0
2017-Dec-09 10:26N 35°29' E 140°01'0 0.0
2017-Dec-09 09:47N 35°29' E 140°01'0 0.0
2017-Dec-09 08:32N 35°29' E 140°01'0 0.0
2017-Dec-09 08:20N 35°29' E 140°01'0 0.0
2017-Dec-09 06:44N 35°29' E 140°01'0 0.0
2017-Dec-09 06:21N 35°29' E 140°01'1 4.3
2017-Dec-09 06:00N 35°30' E 139°60'510.8
2017-Dec-09 05:30N 35°35' E 140°03'2 3.3
2017-Dec-09 04:59N 35°36' E 140°05'0 0.0
2017-Dec-09 04:29N 35°36' E 140°05'0 0.0
2017-Dec-09 03:59N 35°36' E 140°05'0 0.0
2017-Dec-09 03:29N 35°36' E 140°05'0 0.0
2017-Dec-09 02:59N 35°36' E 140°05'0 0.0
2017-Dec-09 02:29N 35°36' E 140°05'0 0.0
2017-Dec-09 01:59N 35°36' E 140°05'0 0.0
2017-Dec-09 01:29N 35°36' E 140°05'0 0.0
2017-Dec-09 00:59N 35°36' E 140°05'0 0.0
2017-Dec-09 00:29N 35°36' E 140°05'0 0.0
2017-Dec-08 23:59N 35°36' E 140°05'0 0.0
2017-Dec-08 23:29N 35°36' E 140°05'1 2.6
2017-Dec-08 22:59N 35°35' E 140°03'0 0.1
2017-Dec-08 22:29N 35°35' E 140°03'0 0.0
2017-Dec-08 21:59N 35°35' E 140°03'0 0.0
2017-Dec-08 21:29N 35°35' E 140°03'0 0.0
2017-Dec-08 20:59N 35°35' E 140°03'0 0.0
2017-Dec-08 20:29N 35°35' E 140°03'0 0.0
2017-Dec-08 19:59N 35°35' E 140°03'0 0.0
2017-Dec-08 19:29N 35°35' E 140°03'0 0.0
2017-Dec-08 18:59N 35°35' E 140°03'0 0.0
2017-Dec-08 18:29N 35°35' E 140°03'0 0.0
2017-Dec-08 17:59N 35°35' E 140°03'0 0.0
2017-Dec-08 17:29N 35°35' E 140°03'0 0.1
2017-Dec-08 16:53N 35°35' E 140°03'0 0.0
2017-Dec-08 16:29N 35°35' E 140°03'0 0.1
2017-Dec-08 15:59N 35°35' E 140°03'0 0.0
2017-Dec-08 15:29N 35°35' E 140°03'0 0.1
2017-Dec-08 14:59N 35°35' E 140°03'0 0.0
2017-Dec-08 14:29N 35°35' E 140°03'0 0.0
2017-Dec-08 13:59N 35°35' E 140°03'0 0.1
2017-Dec-08 13:29N 35°35' E 140°03'0 0.0
2017-Dec-08 12:59N 35°35' E 140°03'0 0.0
2017-Dec-08 12:29N 35°35' E 140°03'0 0.1
2017-Dec-08 11:59N 35°35' E 140°03'0 0.0
2017-Dec-08 11:29N 35°35' E 140°03'0 0.1
2017-Dec-08 10:59N 35°35' E 140°03'0 0.0
2017-Dec-08 10:29N 35°35' E 140°03'0 0.1
2017-Dec-08 09:59N 35°36' E 140°03'0 0.0
2017-Dec-08 09:29N 35°36' E 140°03'0 0.0
2017-Dec-08 08:59N 35°36' E 140°03'0 0.0
2017-Dec-08 08:29N 35°35' E 140°03'0 0.1
2017-Dec-08 07:59N 35°35' E 140°03'0 0.0
2017-Dec-08 07:29N 35°35' E 140°03'0 0.1
2017-Dec-08 06:59N 35°35' E 140°03'0 0.1
2017-Dec-08 06:29N 35°36' E 140°03'0 0.1
2017-Dec-08 05:59N 35°36' E 140°03'0 0.2
2017-Dec-08 05:30N 35°35' E 140°03'3 6.9
2017-Dec-08 05:00N 35°33' E 140°00'4 8.7
2017-Dec-08 04:30N 35°29' E 140°01'0 0.0
2017-Dec-07 23:02N 35°29' E 140°01'0 0.3
2017-Dec-07 23:00N 35°29' E 140°01'1 2.7
2017-Dec-07 22:28N 35°30' E 139°60'0 0.0
2017-Dec-07 21:55N 35°30' E 139°60'0 0.0
2017-Dec-07 21:25N 35°30' E 139°60'0 0.0
2017-Dec-07 20:58N 35°30' E 139°60'0 0.1
2017-Dec-07 20:28N 35°30' E 139°60'0 0.1
2017-Dec-07 19:58N 35°30' E 139°60'0 0.0
2017-Dec-07 19:28N 35°30' E 139°60'0 0.0
2017-Dec-07 18:55N 35°30' E 139°60'0 0.0
2017-Dec-07 18:25N 35°30' E 139°60'0 0.0
2017-Dec-07 17:55N 35°30' E 139°60'0 0.1
2017-Dec-07 17:28N 35°30' E 139°60'0 0.0
2017-Dec-07 16:58N 35°30' E 139°60'0 0.0
2017-Dec-07 16:25N 35°30' E 139°60'0 0.1
2017-Dec-07 15:58N 35°30' E 139°60'0 0.1
2017-Dec-07 15:10N 35°30' E 139°60'0 0.0
2017-Dec-07 14:52N 35°30' E 139°60'0 0.0
2017-Dec-07 14:28N 35°30' E 139°60'0 0.0
2017-Dec-07 13:58N 35°30' E 139°60'0 0.0
2017-Dec-07 13:28N 35°30' E 139°60'0 0.0
2017-Dec-07 12:55N 35°30' E 139°60'0 0.0
2017-Dec-07 12:28N 35°30' E 139°60'0 0.0
2017-Dec-07 11:55N 35°30' E 139°60'0 0.0
2017-Dec-07 11:28N 35°30' E 139°60'0 0.0
2017-Dec-07 10:58N 35°30' E 139°60'0 0.1
2017-Dec-07 10:28N 35°30' E 139°60'0 0.0
2017-Dec-07 09:58N 35°30' E 139°60'0 0.0
2017-Dec-07 09:28N 35°30' E 139°60'0 0.0
2017-Dec-07 08:58N 35°30' E 139°60'0 0.0
2017-Dec-07 08:28N 35°30' E 139°60'0 0.0
2017-Dec-07 07:58N 35°30' E 139°60'0 0.1
2017-Dec-07 07:28N 35°30' E 139°60'0 0.0
2017-Dec-07 06:55N 35°30' E 139°60'0 0.0
2017-Dec-07 06:25N 35°30' E 139°60'0 0.1
2017-Dec-07 05:58N 35°30' E 139°60'0 0.7
2017-Dec-07 05:30N 35°30' E 139°59'612.4
2017-Dec-07 05:00N 35°31' E 139°51'3 4.3
2017-Dec-07 04:15N 35°32' E 139°48'0 0.0
2017-Dec-07 03:39N 35°32' E 139°48'0 0.0
2017-Dec-07 02:48N 35°32' E 139°48'0 0.0
2017-Dec-07 02:24N 35°32' E 139°48'0 0.0
2017-Dec-07 01:39N 35°32' E 139°48'0 0.0
2017-Dec-07 01:18N 35°32' E 139°48'0 0.0
2017-Dec-07 00:57N 35°32' E 139°48'0 0.0
2017-Dec-07 00:27N 35°32' E 139°48'1 1.8
2017-Dec-07 00:00N 35°31' E 139°48'5 9.7
2017-Dec-06 23:30N 35°29' E 139°53'2 3.9
2017-Dec-06 23:00N 35°29' E 139°56'0 0.0
2017-Dec-06 22:30N 35°28' E 139°56'0 0.0
2017-Dec-06 22:00N 35°28' E 139°56'0 0.0
2017-Dec-06 21:30N 35°29' E 139°56'0 0.0
2017-Dec-06 21:00N 35°28' E 139°56'  
2017-Dec-04 10:23N 35°36' E 140°03'0 0.0
2017-Dec-04 09:59N 35°36' E 140°03'0 0.0
2017-Dec-04 09:29N 35°36' E 140°03'0 0.0
2017-Dec-04 08:59N 35°36' E 140°03'0 0.0
2017-Dec-04 08:29N 35°36' E 140°03'0 0.0
2017-Dec-04 07:59N 35°36' E 140°03'0 0.0
2017-Dec-04 07:29N 35°36' E 140°03'0 0.0
2017-Dec-04 06:59N 35°36' E 140°03'0 0.0
2017-Dec-04 06:29N 35°36' E 140°03'0 0.0
2017-Dec-04 05:59N 35°36' E 140°03'0 0.0
2017-Dec-04 05:29N 35°36' E 140°03'3 6.6
2017-Dec-04 05:00N 35°33' E 140°01'4 8.6
2017-Dec-04 04:30N 35°29' E 140°01'0 0.1
2017-Dec-04 03:22N 35°29' E 140°01'0 0.0
2017-Dec-03 23:07N 35°29' E 140°01'0 1.0
2017-Dec-03 23:00N 35°29' E 140°01'4 8.7
2017-Dec-03 22:30N 35°30' E 139°55'612.9
2017-Dec-03 22:00N 35°30' E 139°47'2 3.2
2017-Dec-03 21:29N 35°30' E 139°45'0 0.0
2017-Dec-03 20:56N 35°30' E 139°45'0 0.0
2017-Dec-03 20:29N 35°30' E 139°45'0 0.0
2017-Dec-03 19:59N 35°30' E 139°45'0 0.0
2017-Dec-03 19:29N 35°30' E 139°45'0 0.0
2017-Dec-03 18:56N 35°30' E 139°45'0 0.0
2017-Dec-03 18:26N 35°30' E 139°45'0 0.0
2017-Dec-03 17:59N 35°30' E 139°45'0 0.0
2017-Dec-03 17:29N 35°30' E 139°45'0 0.0
2017-Dec-03 16:59N 35°30' E 139°45'0 0.0
2017-Dec-03 16:29N 35°30' E 139°45'0 0.0
2017-Dec-03 15:59N 35°30' E 139°45'0 0.0
2017-Dec-03 15:29N 35°30' E 139°45'0 0.0
2017-Dec-03 14:59N 35°30' E 139°45'0 0.0
2017-Dec-03 14:29N 35°30' E 139°45'0 0.0
2017-Dec-03 13:59N 35°30' E 139°45'0 0.0
2017-Dec-03 13:29N 35°30' E 139°45'0 0.0
2017-Dec-03 12:59N 35°30' E 139°45'0 0.0
2017-Dec-03 12:29N 35°30' E 139°45'0 0.0
2017-Dec-03 11:59N 35°30' E 139°45'0 0.0
2017-Dec-03 11:26N 35°30' E 139°45'0 0.0
2017-Dec-03 10:56N 35°30' E 139°45'0 0.0
2017-Dec-03 10:29N 35°30' E 139°45'0 0.0
2017-Dec-03 09:59N 35°30' E 139°45'0 0.0
2017-Dec-03 09:29N 35°30' E 139°45'0 0.0
2017-Dec-03 08:59N 35°30' E 139°45'0 0.0
2017-Dec-03 08:29N 35°30' E 139°45'0 0.0
2017-Dec-03 07:59N 35°30' E 139°45'0 0.0
2017-Dec-03 07:29N 35°30' E 139°45'0 0.0
2017-Dec-03 06:59N 35°30' E 139°45'0 0.0
2017-Dec-03 06:26N 35°30' E 139°45'0 0.6
2017-Dec-03 06:01N 35°30' E 139°45'3 6.3
2017-Dec-03 05:30N 35°27' E 139°44'2 3.4
2017-Dec-03 05:00N 35°28' E 139°46'4 8.9
2017-Dec-03 04:30N 35°32' E 139°48'0 0.0
2017-Dec-03 03:54N 35°32' E 139°48'0 0.0
2017-Dec-03 03:24N 35°32' E 139°48'0 0.0
2017-Dec-03 03:00N 35°32' E 139°48'0 0.0
2017-Dec-03 01:30N 35°32' E 139°48'0 0.0
2017-Dec-03 01:00N 35°32' E 139°48'0 0.0
2017-Dec-03 00:27N 35°32' E 139°48'1 2.1
2017-Dec-03 00:00N 35°31' E 139°48'2 3.4
2017-Dec-02 23:28N 35°31' E 139°50'0 0.0
2017-Dec-02 22:52N 35°31' E 139°50'0 0.0
2017-Dec-02 22:28N 35°31' E 139°50'0 0.0
2017-Dec-02 21:58N 35°31' E 139°50'0 0.0
2017-Dec-02 21:28N 35°31' E 139°50'0 0.1
2017-Dec-02 20:58N 35°31' E 139°50'0 0.1
2017-Dec-02 20:28N 35°31' E 139°50'0 0.0
2017-Dec-02 19:58N 35°31' E 139°50'0 0.0
2017-Dec-02 19:28N 35°31' E 139°50'0 0.0
2017-Dec-02 18:58N 35°31' E 139°50'0 0.1
2017-Dec-02 18:28N 35°31' E 139°50'0 0.0
2017-Dec-02 17:58N 35°31' E 139°50'0 0.0
2017-Dec-02 17:28N 35°31' E 139°50'0 0.0
2017-Dec-02 16:58N 35°31' E 139°50'0 0.1
2017-Dec-02 16:28N 35°31' E 139°50'0 0.1
2017-Dec-02 15:58N 35°31' E 139°50'0 0.1
2017-Dec-02 15:28N 35°31' E 139°50'0 0.0
2017-Dec-02 14:58N 35°31' E 139°50'0 0.1
2017-Dec-02 14:25N 35°31' E 139°50'0 0.0
2017-Dec-02 13:58N 35°31' E 139°50'0 0.0
2017-Dec-02 13:28N 35°31' E 139°50'0 0.0
2017-Dec-02 12:58N 35°31' E 139°50'0 0.0
2017-Dec-02 12:28N 35°31' E 139°50'0 0.1
2017-Dec-02 11:58N 35°31' E 139°50'0 0.0
2017-Dec-02 11:28N 35°31' E 139°50'0 0.0
2017-Dec-02 10:55N 35°31' E 139°50'0 0.0
2017-Dec-02 10:28N 35°31' E 139°50'0 0.0
2017-Dec-02 09:58N 35°31' E 139°50'0 0.0
2017-Dec-02 09:28N 35°31' E 139°50'0 0.0
2017-Dec-02 08:58N 35°31' E 139°50'0 0.0
2017-Dec-02 08:28N 35°31' E 139°50'0 0.0
2017-Dec-02 07:58N 35°31' E 139°50'0 0.0
2017-Dec-02 07:28N 35°31' E 139°50'0 0.0
2017-Dec-02 06:58N 35°31' E 139°50'0 0.0
2017-Dec-02 06:28N 35°31' E 139°50'0 0.1
2017-Dec-02 05:55N 35°31' E 139°50'0 0.1
2017-Dec-02 05:30N 35°31' E 139°50'5 9.5
2017-Dec-02 05:00N 35°30' E 139°56'4 8.0
2017-Dec-02 04:30N 35°29' E 140°01'0 0.0
2017-Dec-01 23:34N 35°29' E 140°01'0 0.1
2017-Dec-01 23:30N 35°29' E 140°01'2 3.9
2017-Dec-01 22:58N 35°30' E 139°58'0 0.0
2017-Dec-01 22:31N 35°30' E 139°58'0 0.0
2017-Dec-01 22:01N 35°30' E 139°58'0 0.0
2017-Dec-01 21:30N 35°30' E 139°58'0 0.0
2017-Dec-01 21:01N 35°30' E 139°58'0 0.0
2017-Dec-01 20:30N 35°30' E 139°58'0 0.0
2017-Dec-01 20:01N 35°30' E 139°58'0 0.0
2017-Dec-01 19:30N 35°30' E 139°58'0 0.0
2017-Dec-01 19:00N 35°30' E 139°58'0 0.0
2017-Dec-01 18:30N 35°30' E 139°58'0 0.0
2017-Dec-01 18:00N 35°30' E 139°58'0 0.0
2017-Dec-01 17:30N 35°30' E 139°58'0 0.0
2017-Dec-01 17:00N 35°30' E 139°58'  

Dump ship's entire track history